Dekoa Airport


Codes: FEGD/
Name: Dekoa Airport
City: Dekoa
Country: Central African Republic
Elevation: 1804 ft.

Photos at Dekoa Airport


   Photos courtesy of SpottingLog. You can add your own sightings and photos by signing up for a free trial today.



No photos found.

Weather at Dekoa Airport


Time (UTC)DescriptionTempratureWindCloud coverageVisibilityPressureHumidity
25-Jun-2024 12:00Scattered Clouds35°C2 mph, S49%10000m1009hPa39%
25-Jun-2024 15:00Broken Clouds33°C2 mph, N66%10000m1008hPa45%
25-Jun-2024 18:00Light Rain28°C2 mph, SE72%10000m1008hPa62%
25-Jun-2024 21:00Light Rain22°C4 mph, S87%10000m1011hPa90%
26-Jun-2024 00:00Light Rain21°C4 mph, S93%10000m1010hPa97%
26-Jun-2024 03:00Light Rain21°C4 mph, S100%10000m1010hPa98%
26-Jun-2024 06:00Light Rain23°C2 mph, SW100%10000m1012hPa93%
26-Jun-2024 09:00Overcast Clouds30°C7 mph, SW89%10000m1011hPa55%
26-Jun-2024 12:00Broken Clouds34°C7 mph, S66%10000m1008hPa40%
26-Jun-2024 15:00Broken Clouds32°C4 mph, S64%10000m1006hPa45%
26-Jun-2024 18:00Broken Clouds26°C4 mph, SW52%10000m1008hPa65%
26-Jun-2024 21:00Scattered Clouds24°C2 mph, SW38%10000m1010hPa73%
27-Jun-2024 00:00Light Rain21°C4 mph, SW45%10000m1010hPa93%
27-Jun-2024 03:00Light Rain20°C2 mph, NE41%10000m1010hPa96%
27-Jun-2024 06:00Light Rain22°C2 mph, SW69%10000m1012hPa94%
27-Jun-2024 09:00Light Rain22°C4 mph, W100%10000m1013hPa94%
27-Jun-2024 12:00Light Rain23°C4 mph, NW100%10000m1011hPa92%
27-Jun-2024 15:00Overcast Clouds28°C4 mph, NW99%10000m1008hPa59%
27-Jun-2024 18:00Overcast Clouds23°C2 mph, SW85%10000m1010hPa83%
27-Jun-2024 21:00Overcast Clouds22°C4 mph, SW100%10000m1012hPa86%
28-Jun-2024 00:00Overcast Clouds20°C2 mph, SW99%10000m1012hPa94%
28-Jun-2024 03:00Overcast Clouds20°C2 mph, SW86%10000m1011hPa96%
28-Jun-2024 06:00Overcast Clouds23°C2 mph, W89%10000m1013hPa82%
28-Jun-2024 09:00Overcast Clouds26°C2 mph, NW100%10000m1013hPa70%
28-Jun-2024 12:00Light Rain23°C4 mph, NE100%10000m1012hPa89%
28-Jun-2024 15:00Overcast Clouds23°C2 mph, NE100%10000m1011hPa91%
28-Jun-2024 18:00Overcast Clouds22°C2 mph, N100%10000m1011hPa89%
28-Jun-2024 21:00Overcast Clouds22°C2 mph, SE100%10000m1012hPa88%
29-Jun-2024 00:00Overcast Clouds21°C2 mph, S100%10000m1012hPa90%
29-Jun-2024 03:00Overcast Clouds21°C2 mph, S100%10000m1012hPa91%
29-Jun-2024 06:00Overcast Clouds23°C2 mph, S100%10000m1013hPa81%
29-Jun-2024 09:00Overcast Clouds28°C2 mph, E93%10000m1013hPa58%
29-Jun-2024 12:00Overcast Clouds28°C4 mph, E96%10000m1011hPa60%
29-Jun-2024 15:00Overcast Clouds30°C4 mph, E96%10000m1009hPa51%
29-Jun-2024 18:00Light Rain23°C4 mph, SW89%10000m1011hPa79%
29-Jun-2024 21:00Overcast Clouds21°C2 mph, SW87%10000m1012hPa88%
30-Jun-2024 00:00Broken Clouds21°C4 mph, S72%10000m1012hPa90%
30-Jun-2024 03:00Scattered Clouds20°C2 mph, SW28%10000m1011hPa92%
30-Jun-2024 06:00Scattered Clouds23°C4 mph, S32%10000m1013hPa78%
30-Jun-2024 09:00Broken Clouds31°C4 mph, S51%10000m1012hPa44%